Time;durP1;ratioP1;P1;durP2;ratioP2;P2;SDS_P1;SDS_P2;PMS_P1;PMS_P2;Temp;Humidity;BMP_temperature;BMP_pressure;BME280_temperature;BME280_humidity;BME280_pressure;Samples;Min_cycle;Max_cycle;Signal;HPM_P1;HPM_P2
2021/06/14 00:01:29;;;;;;;15.20;5.97;;;;;;;;;;6251846;23;20024;-85
2021/06/14 00:03:55;;;;;;;12.52;5.80;;;;;;;;;;6251064;23;20481;-85
2021/06/14 00:06:22;;;;;;;10.13;4.03;;;;;;;;;;6251643;23;20383;-85
2021/06/14 00:08:49;;;;;;;10.50;4.97;;;;;;;;;;6251817;23;20038;-85
2021/06/14 00:11:15;;;;;;;8.60;4.38;;;;;;;;;;6252163;23;20042;-84
2021/06/14 00:13:42;;;;;;;9.07;5.43;;;;;;;;;;6249270;23;20032;-85
2021/06/14 00:16:09;;;;;;;11.02;5.05;;;;;;;;;;6229923;23;20034;-85
2021/06/14 00:18:39;;;;;;;13.45;5.60;;;;;;;;;;6252007;23;20028;-85
2021/06/14 00:21:08;;;;;;;11.95;6.15;;;;;;;;;;6250337;23;20024;-85
2021/06/14 00:23:35;;;;;;;11.15;5.05;;;;;;;;;;6252395;23;20209;-85
2021/06/14 00:26:15;;;;;;;11.57;5.68;;;;;;;;;;6253349;23;20024;-85
2021/06/14 00:28:42;;;;;;;12.60;5.60;;;;;;;;;;6252690;23;20425;-85
2021/06/14 00:31:09;;;;;;;12.02;5.25;;;;;;;;;;6251380;23;20269;-85
2021/06/14 00:33:36;;;;;;;11.00;5.57;;;;;;;;;;6227406;23;20038;-85
2021/06/14 00:36:03;;;;;;;11.45;5.85;;;;;;;;;;6252152;23;20027;-85
2021/06/14 00:38:30;;;;;;;15.20;6.20;;;;;;;;;;6232633;22;20012;-85
2021/06/14 00:40:56;;;;;;;11.18;5.53;;;;;;;;;;6271226;22;20035;-84
2021/06/14 00:43:23;;;;;;;10.80;5.32;;;;;;;;;;6269954;22;20034;-84
2021/06/14 00:45:50;;;;;;;11.70;5.93;;;;;;;;;;6228778;23;20032;-84
2021/06/14 00:48:18;;;;;;;27.48;6.95;;;;;;;;;;6226093;23;20078;-84
2021/06/14 00:50:46;;;;;;;17.80;7.03;;;;;;;;;;6251738;23;20024;-84
2021/06/14 00:53:22;;;;;;;20.33;6.32;;;;;;;;;;6228211;23;20329;-84
2021/06/14 00:56:02;;;;;;;16.48;5.88;;;;;;;;;;6255835;23;20051;-84
2021/06/14 00:58:28;;;;;;;13.43;6.28;;;;;;;;;;6264664;23;20372;-84
2021/06/14 01:00:55;;;;;;;17.17;6.57;;;;;;;;;;6256165;23;20047;-84
2021/06/14 01:03:56;;;;;;;20.50;7.43;;;;;;;;;;6256208;23;20020;-84
2021/06/14 01:06:23;;;;;;;16.38;6.40;;;;;;;;;;6227095;23;20024;-84
2021/06/14 01:08:51;;;;;;;15.25;6.68;;;;;;;;;;6253786;23;20031;-84
2021/06/14 01:11:37;;;;;;;17.25;7.63;;;;;;;;;;6252541;23;20024;-84
2021/06/14 01:14:26;;;;;;;15.38;6.88;;;;;;;;;;6226360;23;20043;-85
2021/06/14 01:17:02;;;;;;;18.65;7.22;;;;;;;;;;6225757;23;20082;-84
2021/06/14 01:19:48;;;;;;;14.75;7.35;;;;;;;;;;6227088;23;20025;-84
2021/06/14 01:22:29;;;;;;;15.88;6.55;;;;;;;;;;6229166;23;20030;-84
2021/06/14 01:24:55;;;;;;;10.93;6.88;;;;;;;;;;6254954;23;20028;-84
2021/06/14 01:27:57;;;;;;;14.93;6.75;;;;;;;;;;6227970;23;20055;-84
2021/06/14 01:30:26;;;;;;;16.58;6.93;;;;;;;;;;6199999;23;20028;-84
2021/06/14 01:32:52;;;;;;;15.88;7.30;;;;;;;;;;6199802;23;20024;-84
2021/06/14 01:35:23;;;;;;;19.75;6.50;;;;;;;;;;6224195;23;20029;-84
2021/06/14 01:37:53;;;;;;;15.85;7.20;;;;;;;;;;6198795;23;20048;-84
2021/06/14 01:40:20;;;;;;;18.42;7.47;;;;;;;;;;6202481;23;20029;-85
2021/06/14 01:42:48;;;;;;;18.58;6.38;;;;;;;;;;6226174;23;20035;-85
2021/06/14 01:45:16;;;;;;;15.52;7.10;;;;;;;;;;6197817;23;20098;-85
2021/06/14 01:47:57;;;;;;;13.45;6.30;;;;;;;;;;6199788;23;20083;-85
2021/06/14 01:50:26;;;;;;;18.35;6.93;;;;;;;;;;6199473;23;20095;-85
2021/06/14 01:52:53;;;;;;;16.98;5.95;;;;;;;;;;6224314;23;20353;-85
2021/06/14 01:55:25;;;;;;;21.15;6.90;;;;;;;;;;6197373;23;20020;-85
2021/06/14 01:57:52;;;;;;;15.23;6.80;;;;;;;;;;6215025;22;20411;-85
2021/06/14 02:00:20;;;;;;;15.40;6.20;;;;;;;;;;6198989;23;20030;-85
2021/06/14 02:02:48;;;;;;;13.85;6.78;;;;;;;;;;6198479;23;20072;-84
2021/06/14 02:05:19;;;;;;;13.73;7.32;;;;;;;;;;6224397;23;20169;-84
2021/06/14 02:07:49;;;;;;;19.10;7.13;;;;;;;;;;6197975;23;20021;-85
2021/06/14 02:10:16;;;;;;;19.80;7.32;;;;;;;;;;6197397;23;20029;-85
2021/06/14 02:12:43;;;;;;;15.13;7.40;;;;;;;;;;6197362;23;20406;-85
2021/06/14 02:15:11;;;;;;;16.58;6.25;;;;;;;;;;6223585;23;20024;-85
2021/06/14 02:17:40;;;;;;;12.02;5.80;;;;;;;;;;6224551;23;20025;-85
2021/06/14 02:20:07;;;;;;;17.00;6.70;;;;;;;;;;6225859;23;20024;-85
2021/06/14 02:22:36;;;;;;;17.38;6.18;;;;;;;;;;6199312;23;20048;-85
2021/06/14 02:25:35;;;;;;;15.30;5.95;;;;;;;;;;6224345;23;20295;-85
2021/06/14 02:28:01;;;;;;;18.40;7.22;;;;;;;;;;6223448;23;20072;-85
2021/06/14 02:30:29;;;;;;;16.33;7.00;;;;;;;;;;6222979;23;20025;-85
2021/06/14 02:32:56;;;;;;;16.00;6.60;;;;;;;;;;6198348;23;20318;-85
2021/06/14 02:35:23;;;;;;;17.27;6.13;;;;;;;;;;6199342;23;20024;-85
2021/06/14 02:37:54;;;;;;;14.55;6.32;;;;;;;;;;6223384;23;20283;-85
2021/06/14 02:40:25;;;;;;;17.13;6.30;;;;;;;;;;6197428;23;20025;-85
2021/06/14 02:43:08;;;;;;;16.13;5.65;;;;;;;;;;6222939;23;20024;-85
2021/06/14 02:45:37;;;;;;;16.45;5.90;;;;;;;;;;6198006;23;20024;-84
2021/06/14 02:48:05;;;;;;;14.88;6.88;;;;;;;;;;6224521;23;20085;-84
2021/06/14 02:50:32;;;;;;;15.23;6.03;;;;;;;;;;6198090;23;20024;-86
2021/06/14 02:53:01;;;;;;;12.10;5.57;;;;;;;;;;6228924;23;20095;-83
2021/06/14 02:55:40;;;;;;;14.88;6.03;;;;;;;;;;6223085;23;20071;-85
2021/06/14 02:58:07;;;;;;;14.88;5.45;;;;;;;;;;6217268;23;20090;-83
2021/06/14 03:00:35;;;;;;;17.73;6.82;;;;;;;;;;6224234;23;20024;-83
2021/06/14 03:03:04;;;;;;;16.90;5.80;;;;;;;;;;6221761;23;20024;-84
2021/06/14 03:05:31;;;;;;;15.50;6.15;;;;;;;;;;6223527;23;20024;-84
2021/06/14 03:07:59;;;;;;;14.57;5.47;;;;;;;;;;6224473;23;20078;-84
2021/06/14 03:10:28;;;;;;;15.38;5.80;;;;;;;;;;6223839;23;20115;-84
2021/06/14 03:13:14;;;;;;;13.68;6.40;;;;;;;;;;6246360;23;20036;-84
2021/06/14 03:15:41;;;;;;;18.35;5.50;;;;;;;;;;6249516;23;20032;-84
2021/06/14 03:18:08;;;;;;;11.95;5.90;;;;;;;;;;6224516;23;20052;-84
2021/06/14 03:20:36;;;;;;;13.18;5.13;;;;;;;;;;6222870;23;20024;-83
2021/06/14 03:23:04;;;;;;;14.85;5.30;;;;;;;;;;6223545;23;20040;-86
2021/06/14 03:25:37;;;;;;;14.32;5.75;;;;;;;;;;6223879;23;20028;-84
2021/06/14 03:28:05;;;;;;;14.32;5.43;;;;;;;;;;6223142;23;20025;-85
2021/06/14 03:30:31;;;;;;;14.07;5.80;;;;;;;;;;6224077;23;20056;-84
2021/06/14 03:32:59;;;;;;;14.93;5.72;;;;;;;;;;6247266;23;20035;-84
2021/06/14 03:35:26;;;;;;;12.68;5.53;;;;;;;;;;6224376;23;20048;-83
2021/06/14 03:37:53;;;;;;;14.25;6.13;;;;;;;;;;6223474;23;20053;-84
2021/06/14 03:40:21;;;;;;;17.55;5.90;;;;;;;;;;6222109;23;20365;-85
2021/06/14 03:42:48;;;;;;;13.57;5.35;;;;;;;;;;6222068;23;20020;-85
2021/06/14 03:45:15;;;;;;;15.90;5.63;;;;;;;;;;6220673;23;20077;-85
2021/06/14 03:47:41;;;;;;;15.07;5.90;;;;;;;;;;6247789;23;20075;-83
2021/06/14 03:50:09;;;;;;;10.63;5.10;;;;;;;;;;6231923;23;20326;-84
2021/06/14 03:52:40;;;;;;;16.63;5.63;;;;;;;;;;6229721;23;20052;-85
2021/06/14 03:55:09;;;;;;;12.15;5.18;;;;;;;;;;6221607;23;20028;-84
2021/06/14 03:57:36;;;;;;;13.32;5.47;;;;;;;;;;6241729;23;20028;-85
2021/06/14 04:00:04;;;;;;;19.75;5.20;;;;;;;;;;6251850;23;20074;-85
2021/06/14 04:02:31;;;;;;;14.27;5.57;;;;;;;;;;6250827;23;20028;-84
2021/06/14 04:04:58;;;;;;;9.82;4.90;;;;;;;;;;6252905;23;20020;-84
2021/06/14 04:07:55;;;;;;;15.88;5.28;;;;;;;;;;6229639;23;20460;-84
2021/06/14 04:10:24;;;;;;;16.55;5.70;;;;;;;;;;6255409;23;20034;-86
2021/06/14 04:12:51;;;;;;;16.05;5.47;;;;;;;;;;6256325;23;20028;-84
2021/06/14 04:15:23;;;;;;;9.63;4.43;;;;;;;;;;6255062;23;20028;-84
2021/06/14 04:17:52;;;;;;;12.32;5.45;;;;;;;;;;6251827;23;20302;-84
2021/06/14 04:20:21;;;;;;;12.60;5.20;;;;;;;;;;6252532;23;20020;-85
2021/06/14 04:22:54;;;;;;;13.07;5.15;;;;;;;;;;6255260;23;20028;-85
2021/06/14 04:25:24;;;;;;;14.43;4.95;;;;;;;;;;6268345;22;20095;-84
2021/06/14 04:27:55;;;;;;;12.27;5.15;;;;;;;;;;6241724;22;20027;-84
2021/06/14 04:30:22;;;;;;;12.75;5.63;;;;;;;;;;6251664;23;20080;-84
2021/06/14 04:32:49;;;;;;;13.38;4.72;;;;;;;;;;6231734;23;20055;-84
2021/06/14 04:35:16;;;;;;;11.68;4.97;;;;;;;;;;6231247;23;20027;-84
2021/06/14 04:37:53;;;;;;;13.52;5.82;;;;;;;;;;6254253;23;20195;-84
2021/06/14 04:40:19;;;;;;;7.78;4.45;;;;;;;;;;6253052;23;20035;-84
2021/06/14 04:42:46;;;;;;;11.05;4.97;;;;;;;;;;6253080;23;20028;-83
2021/06/14 04:45:15;;;;;;;12.20;5.03;;;;;;;;;;6253905;23;20052;-84
2021/06/14 04:47:44;;;;;;;9.30;4.35;;;;;;;;;;6251665;23;20095;-82
2021/06/14 04:50:12;;;;;;;11.68;5.13;;;;;;;;;;6222756;23;20417;-85
2021/06/14 04:52:40;;;;;;;12.02;4.65;;;;;;;;;;6223593;23;20024;-85
2021/06/14 04:55:08;;;;;;;14.85;5.15;;;;;;;;;;6250320;23;20042;-85
2021/06/14 04:57:35;;;;;;;14.05;5.40;;;;;;;;;;6248821;23;20138;-85
2021/06/14 05:00:03;;;;;;;10.80;4.35;;;;;;;;;;6246143;23;20034;-85
2021/06/14 05:02:30;;;;;;;16.42;5.05;;;;;;;;;;6246522;23;20440;-84
2021/06/14 05:04:57;;;;;;;12.18;4.38;;;;;;;;;;6222259;23;20031;-84
2021/06/14 05:07:24;;;;;;;11.85;4.75;;;;;;;;;;6246999;23;20103;-84
2021/06/14 05:09:53;;;;;;;11.20;4.75;;;;;;;;;;6225482;23;20307;-84
2021/06/14 05:12:23;;;;;;;12.30;5.28;;;;;;;;;;6252546;23;20027;-84
2021/06/14 05:14:50;;;;;;;12.15;4.65;;;;;;;;;;6248270;23;20020;-85
2021/06/14 05:17:17;;;;;;;12.43;5.57;;;;;;;;;;6247200;23;20032;-85
2021/06/14 05:19:49;;;;;;;10.48;4.05;;;;;;;;;;6243357;23;20320;-84
2021/06/14 05:22:15;;;;;;;9.13;4.55;;;;;;;;;;6246676;23;20062;-84
2021/06/14 05:24:43;;;;;;;10.82;4.15;;;;;;;;;;6246550;23;20096;-84
2021/06/14 05:27:10;;;;;;;11.55;4.97;;;;;;;;;;6248945;23;20079;-85
2021/06/14 05:29:36;;;;;;;10.80;4.22;;;;;;;;;;6245173;23;20024;-85
2021/06/14 05:32:07;;;;;;;11.02;4.47;;;;;;;;;;6246296;23;20028;-86
2021/06/14 05:34:37;;;;;;;11.13;4.57;;;;;;;;;;6247629;23;20097;-85
2021/06/14 05:37:10;;;;;;;12.77;4.40;;;;;;;;;;6256846;23;20028;-86
2021/06/14 05:39:38;;;;;;;14.65;5.00;;;;;;;;;;6252513;23;20032;-87
2021/06/14 05:42:05;;;;;;;11.85;4.55;;;;;;;;;;6245740;23;20031;-86
2021/06/14 05:44:31;;;;;;;11.00;4.80;;;;;;;;;;6247368;23;20098;-86
2021/06/14 05:47:04;;;;;;;15.30;4.85;;;;;;;;;;6246266;23;20024;-86
2021/06/14 05:49:31;;;;;;;12.80;4.80;;;;;;;;;;6248784;23;20036;-86
2021/06/14 05:52:02;;;;;;;12.65;5.07;;;;;;;;;;6244265;23;20239;-86
2021/06/14 05:54:29;;;;;;;10.75;4.80;;;;;;;;;;6246017;23;20352;-85
2021/06/14 05:56:56;;;;;;;10.93;4.47;;;;;;;;;;6246313;23;20035;-86
2021/06/14 05:59:22;;;;;;;16.45;5.82;;;;;;;;;;6242585;23;20035;-85
2021/06/14 06:01:58;;;;;;;19.17;5.53;;;;;;;;;;6244971;23;20058;-85
2021/06/14 06:04:25;;;;;;;10.48;4.78;;;;;;;;;;6250054;23;20076;-86
2021/06/14 06:06:52;;;;;;;13.35;4.75;;;;;;;;;;6250612;22;20028;-87
2021/06/14 06:09:18;;;;;;;10.95;4.90;;;;;;;;;;6248869;23;20125;-86
2021/06/14 06:11:45;;;;;;;11.30;5.20;;;;;;;;;;6250350;23;20041;-86
2021/06/14 06:14:12;;;;;;;15.45;5.50;;;;;;;;;;6252671;23;20051;-85
2021/06/14 06:16:39;;;;;;;9.88;5.40;;;;;;;;;;6252970;23;20380;-86
2021/06/14 06:19:28;;;;;;;13.35;5.03;;;;;;;;;;6250447;23;20035;-86
2021/06/14 06:21:55;;;;;;;16.42;5.32;;;;;;;;;;6225373;23;20038;-86
2021/06/14 06:24:21;;;;;;;13.38;5.55;;;;;;;;;;6248682;23;20035;-86
2021/06/14 06:26:56;;;;;;;13.63;5.35;;;;;;;;;;6230318;23;20066;-87
2021/06/14 06:29:22;;;;;;;14.27;5.95;;;;;;;;;;6256810;23;20035;-86
2021/06/14 06:31:49;;;;;;;12.10;5.38;;;;;;;;;;6225953;23;20039;-87
2021/06/14 06:34:16;;;;;;;14.43;5.28;;;;;;;;;;6254993;23;20309;-86
2021/06/14 06:36:45;;;;;;;9.68;4.72;;;;;;;;;;6255181;23;20172;-87
2021/06/14 06:39:12;;;;;;;11.75;4.80;;;;;;;;;;6225146;23;20035;-86
2021/06/14 06:42:00;;;;;;;11.57;5.78;;;;;;;;;;6226255;23;20080;-87
2021/06/14 06:44:27;;;;;;;15.13;5.00;;;;;;;;;;6258969;23;20024;-87
2021/06/14 06:46:54;;;;;;;12.07;4.63;;;;;;;;;;6227497;23;20039;-87
2021/06/14 06:49:24;;;;;;;11.35;4.40;;;;;;;;;;6250535;23;20024;-87
2021/06/14 06:51:51;;;;;;;6.57;3.60;;;;;;;;;;6253120;23;20028;-87
2021/06/14 06:54:18;;;;;;;8.32;4.43;;;;;;;;;;6252162;23;20207;-88
2021/06/14 06:56:46;;;;;;;12.32;4.63;;;;;;;;;;6253368;23;20101;-86
2021/06/14 06:59:15;;;;;;;12.20;4.45;;;;;;;;;;6252738;23;20032;-87
2021/06/14 07:01:44;;;;;;;12.68;4.93;;;;;;;;;;6250392;23;20076;-86
2021/06/14 07:04:11;;;;;;;19.38;5.25;;;;;;;;;;6250741;23;20051;-87
2021/06/14 07:06:38;;;;;;;11.23;3.85;;;;;;;;;;6252510;23;20083;-86
2021/06/14 07:09:05;;;;;;;10.07;3.72;;;;;;;;;;6246775;23;20421;-87
2021/06/14 07:11:32;;;;;;;10.52;4.05;;;;;;;;;;6246195;23;20035;-86
2021/06/14 07:14:33;;;;;;;8.30;3.03;;;;;;;;;;6249624;23;20038;-86
2021/06/14 07:17:00;;;;;;;11.20;4.00;;;;;;;;;;6219417;23;20024;-86
2021/06/14 07:19:26;;;;;;;9.98;3.92;;;;;;;;;;6245706;23;20024;-86
2021/06/14 07:21:54;;;;;;;10.07;3.42;;;;;;;;;;6248744;23;20031;-85
2021/06/14 07:24:33;;;;;;;9.80;3.47;;;;;;;;;;6220898;23;20013;-85
2021/06/14 07:27:00;;;;;;;12.38;4.18;;;;;;;;;;6223791;23;20080;-85
2021/06/14 07:29:28;;;;;;;7.10;3.15;;;;;;;;;;6250639;23;20024;-84
2021/06/14 07:31:58;;;;;;;9.73;3.72;;;;;;;;;;6249959;23;20024;-84
2021/06/14 07:34:25;;;;;;;7.30;3.22;;;;;;;;;;6248972;23;20016;-84
2021/06/14 07:36:52;;;;;;;11.00;3.67;;;;;;;;;;6247857;23;20117;-85
2021/06/14 07:39:22;;;;;;;8.73;3.55;;;;;;;;;;6247794;23;20030;-85
2021/06/14 07:41:49;;;;;;;8.70;3.30;;;;;;;;;;6249019;23;20031;-85
2021/06/14 07:44:19;;;;;;;7.97;3.33;;;;;;;;;;6252163;23;20035;-87
2021/06/14 07:46:58;;;;;;;5.93;3.10;;;;;;;;;;6226624;23;20150;-86
2021/06/14 07:49:28;;;;;;;9.07;3.30;;;;;;;;;;6249109;23;20024;-85
2021/06/14 07:51:55;;;;;;;7.38;3.28;;;;;;;;;;6247146;23;20024;-85
2021/06/14 07:54:21;;;;;;;11.07;3.10;;;;;;;;;;6250593;23;20024;-87
2021/06/14 07:56:49;;;;;;;10.32;3.30;;;;;;;;;;6262551;22;20016;-86
2021/06/14 07:59:16;;;;;;;9.18;3.47;;;;;;;;;;6234871;22;20217;-85
2021/06/14 08:01:42;;;;;;;11.20;3.25;;;;;;;;;;6255940;22;20298;-85
2021/06/14 08:04:31;;;;;;;5.75;3.47;;;;;;;;;;6246272;23;20055;-83
2021/06/14 08:06:57;;;;;;;7.60;2.63;;;;;;;;;;6253680;23;20024;-86
2021/06/14 08:09:29;;;;;;;6.32;2.92;;;;;;;;;;6227032;23;20118;-84
2021/06/14 08:11:58;;;;;;;11.38;3.88;;;;;;;;;;6222688;23;20028;-86
2021/06/14 08:14:25;;;;;;;11.07;3.75;;;;;;;;;;6252406;23;20496;-84
2021/06/14 08:16:52;;;;;;;9.40;3.60;;;;;;;;;;6220377;23;20070;-85
2021/06/14 08:27:38;;;;;;;10.10;2.97;;;;;;;;;;6252285;23;20078;-84
2021/06/14 08:30:09;;;;;;;8.20;3.35;;;;;;;;;;6252501;23;20038;-84
2021/06/14 08:32:40;;;;;;;10.07;3.50;;;;;;;;;;6223269;23;20456;-85
2021/06/14 08:35:26;;;;;;;11.65;3.67;;;;;;;;;;6221579;23;20444;-85
2021/06/14 08:37:53;;;;;;;6.15;3.13;;;;;;;;;;6247284;23;20034;-86
2021/06/14 08:40:21;;;;;;;9.18;3.45;;;;;;;;;;6225192;23;20491;-85
2021/06/14 08:42:55;;;;;;;7.20;3.25;;;;;;;;;;6229679;23;20022;-85
2021/06/14 08:45:22;;;;;;;10.73;3.45;;;;;;;;;;6229867;23;20020;-85
2021/06/14 08:47:50;;;;;;;10.07;3.60;;;;;;;;;;6252664;23;20020;-84
2021/06/14 08:50:19;;;;;;;8.02;3.17;;;;;;;;;;6251929;23;20028;-84
2021/06/14 08:52:47;;;;;;;9.95;3.83;;;;;;;;;;6224734;23;20039;-86
2021/06/14 08:55:15;;;;;;;5.97;3.03;;;;;;;;;;6222986;23;20050;-84
2021/06/14 08:57:50;;;;;;;9.95;2.97;;;;;;;;;;6250728;23;20028;-85
2021/06/14 09:00:20;;;;;;;7.18;3.22;;;;;;;;;;6250130;23;20028;-85
2021/06/14 09:02:48;;;;;;;9.57;3.53;;;;;;;;;;6248395;23;20415;-85
2021/06/14 09:05:20;;;;;;;6.63;3.08;;;;;;;;;;6245566;23;20428;-85
2021/06/14 09:07:47;;;;;;;11.50;4.30;;;;;;;;;;6244451;23;20024;-85
2021/06/14 09:10:34;;;;;;;11.88;3.50;;;;;;;;;;6244930;23;20072;-85
2021/06/14 09:13:11;;;;;;;13.30;2.83;;;;;;;;;;6244184;23;20046;-84
2021/06/14 09:15:39;;;;;;;10.60;3.60;;;;;;;;;;6217441;23;20086;-84
2021/06/14 09:18:33;;;;;;;10.63;3.78;;;;;;;;;;6244139;23;20261;-84
2021/06/14 09:20:59;;;;;;;7.85;3.70;;;;;;;;;;6242235;23;20024;-84
2021/06/14 09:23:39;;;;;;;11.00;3.75;;;;;;;;;;6249820;23;20024;-85
2021/06/14 09:26:06;;;;;;;9.65;3.30;;;;;;;;;;6248399;23;20073;-85
2021/06/14 09:28:32;;;;;;;13.10;3.75;;;;;;;;;;6245835;23;20028;-85
2021/06/14 09:31:11;;;;;;;18.48;3.45;;;;;;;;;;6244776;23;20365;-85
2021/06/14 09:33:41;;;;;;;8.15;2.67;;;;;;;;;;6244043;23;20114;-84
2021/06/14 09:36:09;;;;;;;9.93;3.20;;;;;;;;;;6248214;23;20078;-85
2021/06/14 09:38:36;;;;;;;8.50;3.38;;;;;;;;;;6225322;23;20201;-85
2021/06/14 09:41:08;;;;;;;9.30;3.45;;;;;;;;;;6244387;23;20072;-85
2021/06/14 09:43:39;;;;;;;7.13;2.70;;;;;;;;;;6246301;23;20355;-85
2021/06/14 09:46:27;;;;;;;11.32;3.05;;;;;;;;;;6245545;23;20074;-84
2021/06/14 09:48:57;;;;;;;9.45;3.33;;;;;;;;;;6241596;23;20106;-85
2021/06/14 09:51:51;;;;;;;10.48;2.90;;;;;;;;;;6244042;23;20385;-85
2021/06/14 09:54:28;;;;;;;11.77;3.83;;;;;;;;;;6249066;23;20060;-86
2021/06/14 09:56:55;;;;;;;5.10;2.50;;;;;;;;;;6247554;23;20032;-85
2021/06/14 09:59:29;;;;;;;6.78;3.00;;;;;;;;;;6249826;23;20028;-85
2021/06/14 10:02:06;;;;;;;6.57;3.00;;;;;;;;;;6245999;23;20023;-84
2021/06/14 10:04:33;;;;;;;7.03;3.00;;;;;;;;;;6245737;23;20035;-85
2021/06/14 10:07:11;;;;;;;8.43;3.33;;;;;;;;;;6247346;23;20032;-85
2021/06/14 10:09:41;;;;;;;8.40;3.13;;;;;;;;;;6253816;23;20028;-86
2021/06/14 10:12:17;;;;;;;14.15;3.13;;;;;;;;;;6247591;23;20042;-85
2021/06/14 10:14:58;;;;;;;9.02;3.28;;;;;;;;;;6249880;23;20035;-84
2021/06/14 10:17:39;;;;;;;9.70;2.60;;;;;;;;;;6248092;23;20032;-86
2021/06/14 10:20:10;;;;;;;6.43;2.85;;;;;;;;;;6253774;23;20374;-85
2021/06/14 10:22:42;;;;;;;5.93;2.70;;;;;;;;;;6250264;23;20031;-86
2021/06/14 10:25:29;;;;;;;6.05;2.88;;;;;;;;;;6249786;23;20024;-85
2021/06/14 10:28:03;;;;;;;9.80;3.33;;;;;;;;;;6248612;23;20361;-85
2021/06/14 10:30:29;;;;;;;8.77;2.85;;;;;;;;;;6255425;22;20028;-84
2021/06/14 10:32:57;;;;;;;6.35;2.58;;;;;;;;;;6254942;23;20405;-85
2021/06/14 10:35:55;;;;;;;10.32;2.88;;;;;;;;;;6252474;23;20119;-84
2021/06/14 10:38:43;;;;;;;6.80;2.92;;;;;;;;;;6255680;23;20053;-85
2021/06/14 10:41:10;;;;;;;6.53;2.60;;;;;;;;;;6228106;23;20024;-85
2021/06/14 10:44:08;;;;;;;4.72;2.25;;;;;;;;;;6254289;23;20022;-86
2021/06/14 10:46:42;;;;;;;10.52;3.20;;;;;;;;;;6255460;23;20012;-85
2021/06/14 10:49:12;;;;;;;7.03;2.65;;;;;;;;;;6254114;23;20168;-87
2021/06/14 10:51:40;;;;;;;9.48;3.50;;;;;;;;;;6254191;23;20035;-86
2021/06/14 10:54:12;;;;;;;5.55;2.17;;;;;;;;;;6252933;23;20075;-86
2021/06/14 10:56:41;;;;;;;7.40;2.70;;;;;;;;;;6250823;23;20035;-86
2021/06/14 10:59:14;;;;;;;6.47;2.90;;;;;;;;;;6259664;23;20023;-87
2021/06/14 11:01:51;;;;;;;6.68;2.42;;;;;;;;;;6257136;23;20271;-85
2021/06/14 11:04:27;;;;;;;11.05;2.58;;;;;;;;;;6252084;23;20024;-85
2021/06/14 11:06:56;;;;;;;6.03;2.72;;;;;;;;;;6254215;23;20055;-86
2021/06/14 11:09:47;;;;;;;7.22;2.72;;;;;;;;;;6250508;23;20267;-85
2021/06/14 11:12:24;;;;;;;6.57;2.42;;;;;;;;;;6250836;23;20020;-85
2021/06/14 11:14:51;;;;;;;6.85;2.22;;;;;;;;;;6247152;23;20029;-84
2021/06/14 11:17:38;;;;;;;8.15;2.60;;;;;;;;;;6248828;23;20091;-85
2021/06/14 11:20:08;;;;;;;8.80;2.90;;;;;;;;;;6252979;23;20024;-86
2021/06/14 11:22:54;;;;;;;8.88;3.05;;;;;;;;;;6257281;23;20051;-86
2021/06/14 11:25:42;;;;;;;7.13;2.60;;;;;;;;;;6260070;23;20052;-85
2021/06/14 11:28:28;;;;;;;8.00;2.35;;;;;;;;;;6263245;22;20059;-85
2021/06/14 11:31:14;;;;;;;8.05;2.88;;;;;;;;;;6268602;22;20051;-86
2021/06/14 11:33:44;;;;;;;7.40;2.45;;;;;;;;;;6233692;23;20046;-86
2021/06/14 11:36:19;;;;;;;8.45;2.42;;;;;;;;;;6251313;23;20031;-86
2021/06/14 11:38:51;;;;;;;6.95;2.70;;;;;;;;;;6251667;23;20070;-86
2021/06/14 11:41:25;;;;;;;6.20;2.53;;;;;;;;;;6250887;23;20024;-85
2021/06/14 11:44:11;;;;;;;6.25;2.40;;;;;;;;;;6256641;22;20051;-86
2021/06/14 11:46:43;;;;;;;6.40;2.38;;;;;;;;;;6259911;23;20023;-86
2021/06/14 11:49:11;;;;;;;5.03;2.10;;;;;;;;;;6258688;23;20036;-87
2021/06/14 11:51:53;;;;;;;6.63;2.38;;;;;;;;;;6257041;23;20032;-87
2021/06/14 11:54:35;;;;;;;5.22;2.45;;;;;;;;;;6230927;23;20030;-86
2021/06/14 11:57:02;;;;;;;4.28;2.20;;;;;;;;;;6251577;23;20028;-86
2021/06/14 11:59:34;;;;;;;8.10;1.98;;;;;;;;;;6251027;23;20028;-86
2021/06/14 12:05:32;;;;;;;5.82;2.20;;;;;;;;;;6254692;23;20026;-87
2021/06/14 12:08:05;;;;;;;5.15;2.40;;;;;;;;;;6251833;23;20067;-86
2021/06/14 12:10:32;;;;;;;4.93;2.42;;;;;;;;;;6255171;23;20044;-86
2021/06/14 12:13:19;;;;;;;8.10;2.10;;;;;;;;;;6233279;23;20036;-88
2021/06/14 12:15:56;;;;;;;5.35;2.30;;;;;;;;;;6253595;23;20358;-87
2021/06/14 12:18:23;;;;;;;5.28;2.20;;;;;;;;;;6252119;23;20012;-87
2021/06/14 12:20:56;;;;;;;4.75;2.13;;;;;;;;;;6225882;23;20020;-87
2021/06/14 12:23:35;;;;;;;5.10;2.10;;;;;;;;;;6257603;23;20055;-86
2021/06/14 12:26:12;;;;;;;3.78;2.13;;;;;;;;;;6256548;23;20099;-86
2021/06/14 12:28:39;;;;;;;4.00;2.35;;;;;;;;;;6228224;23;20027;-86
2021/06/14 12:31:38;;;;;;;5.88;2.55;;;;;;;;;;6250894;23;20220;-86
2021/06/14 12:34:13;;;;;;;5.57;2.42;;;;;;;;;;6253935;23;20043;-86
2021/06/14 12:36:40;;;;;;;7.60;2.30;;;;;;;;;;6249773;23;20059;-88
2021/06/14 12:39:07;;;;;;;7.57;2.28;;;;;;;;;;6249168;23;20024;-86
2021/06/14 12:41:44;;;;;;;8.65;2.17;;;;;;;;;;6248030;23;20044;-86
2021/06/14 12:44:12;;;;;;;5.05;2.10;;;;;;;;;;6246792;23;20325;-87
2021/06/14 12:46:39;;;;;;;5.32;2.33;;;;;;;;;;6221653;23;20103;-87
2021/06/14 12:49:07;;;;;;;5.88;2.22;;;;;;;;;;6222756;23;20454;-86
2021/06/14 12:51:35;;;;;;;5.38;2.38;;;;;;;;;;6247828;23;20035;-86
2021/06/14 12:54:07;;;;;;;6.60;2.22;;;;;;;;;;6223991;23;20075;-84
2021/06/14 12:56:39;;;;;;;5.60;2.38;;;;;;;;;;6252420;23;20028;-86
2021/06/14 12:59:09;;;;;;;3.60;1.95;;;;;;;;;;6220219;23;20024;-86
2021/06/14 13:01:39;;;;;;;4.75;2.30;;;;;;;;;;6217290;23;20111;-86
2021/06/14 13:04:08;;;;;;;4.90;2.00;;;;;;;;;;6219011;23;20116;-85
2021/06/14 13:06:42;;;;;;;7.38;2.55;;;;;;;;;;6195705;23;20051;-86
2021/06/14 13:09:09;;;;;;;4.22;2.05;;;;;;;;;;6193976;23;20080;-87
2021/06/14 13:11:43;;;;;;;5.82;2.42;;;;;;;;;;6196539;23;20039;-86
2021/06/14 13:14:24;;;;;;;12.82;3.75;;;;;;;;;;6193951;23;20025;-86
2021/06/14 13:17:13;;;;;;;4.85;1.98;;;;;;;;;;6197456;23;20031;-86
2021/06/14 13:19:44;;;;;;;3.63;1.92;;;;;;;;;;6195980;23;20025;-87
2021/06/14 13:22:21;;;;;;;10.15;2.30;;;;;;;;;;6195250;23;20021;-87
2021/06/14 13:25:05;;;;;;;7.95;2.20;;;;;;;;;;6221024;23;20238;-87
2021/06/14 13:27:33;;;;;;;4.60;2.22;;;;;;;;;;6197914;23;20064;-87
2021/06/14 13:30:01;;;;;;;9.82;2.10;;;;;;;;;;6223598;23;20081;-87
2021/06/14 13:32:46;;;;;;;5.22;1.50;;;;;;;;;;6228054;23;20084;-86
2021/06/14 13:35:19;;;;;;;9.18;2.03;;;;;;;;;;6202399;23;20059;-88
2021/06/14 13:37:47;;;;;;;4.72;2.10;;;;;;;;;;6231447;23;20597;-87
2021/06/14 13:40:39;;;;;;;5.25;1.70;;;;;;;;;;6201205;23;20043;-87
2021/06/14 13:43:08;;;;;;;5.50;1.83;;;;;;;;;;6205763;22;20028;-86
2021/06/14 13:45:50;;;;;;;3.45;1.63;;;;;;;;;;6263667;22;20153;-87
2021/06/14 13:48:20;;;;;;;5.20;1.77;;;;;;;;;;6228554;23;20031;-86
2021/06/14 13:50:57;;;;;;;5.78;2.15;;;;;;;;;;6258070;23;20023;-87
2021/06/14 13:54:20;;;;;;;4.13;2.00;;;;;;;;;;6260961;23;20035;-86
2021/06/14 13:56:40;;;;;;;4.80;2.15;;;;;;;;;;6252640;22;20095;-86
2021/06/14 13:59:27;;;;;;;4.00;2.28;;;;;;;;;;6227074;23;20020;-86
2021/06/14 14:02:16;;;;;;;8.13;2.00;;;;;;;;;;6250652;23;20023;-87
2021/06/14 14:04:43;;;;;;;4.03;2.30;;;;;;;;;;6253015;23;20062;-86
2021/06/14 14:07:09;;;;;;;6.32;2.15;;;;;;;;;;6224544;23;20020;-88
2021/06/14 14:10:11;;;;;;;5.82;1.73;;;;;;;;;;6249071;23;20108;-86
2021/06/14 14:12:37;;;;;;;2.30;1.23;;;;;;;;;;6246477;23;20024;-87
2021/06/14 14:15:08;;;;;;;3.63;1.70;;;;;;;;;;6248877;23;20028;-87
2021/06/14 14:17:42;;;;;;;5.50;1.75;;;;;;;;;;6247040;23;20097;-87
2021/06/14 14:20:11;;;;;;;3.40;1.67;;;;;;;;;;6249107;23;20024;-86
2021/06/14 14:22:38;;;;;;;4.97;1.75;;;;;;;;;;6247637;23;20078;-87
2021/06/14 14:25:08;;;;;;;2.85;1.60;;;;;;;;;;6222430;23;20028;-86
2021/06/14 14:27:38;;;;;;;4.82;2.10;;;;;;;;;;6252916;23;20179;-86
2021/06/14 14:30:10;;;;;;;6.93;1.77;;;;;;;;;;6252486;23;20034;-86
2021/06/14 14:32:47;;;;;;;4.45;1.90;;;;;;;;;;6251521;23;20082;-88
2021/06/14 14:35:18;;;;;;;2.33;1.63;;;;;;;;;;6251186;23;20074;-88
2021/06/14 14:38:03;;;;;;;3.42;1.67;;;;;;;;;;6228011;23;20028;-86
2021/06/14 14:40:45;;;;;;;4.30;1.88;;;;;;;;;;6244729;23;20031;-87
2021/06/14 14:43:28;;;;;;;5.97;1.70;;;;;;;;;;6250779;23;20048;-87
2021/06/14 14:46:10;;;;;;;5.22;2.08;;;;;;;;;;6226700;22;20138;-87
2021/06/14 14:48:36;;;;;;;5.78;2.08;;;;;;;;;;6251275;23;20023;-87
2021/06/14 14:51:06;;;;;;;9.10;2.17;;;;;;;;;;6250249;23;20032;-87
2021/06/14 14:53:36;;;;;;;6.15;2.00;;;;;;;;;;6277779;22;20024;-87
2021/06/14 14:56:03;;;;;;;6.35;1.90;;;;;;;;;;6252966;23;20047;-87
2021/06/14 14:58:30;;;;;;;5.55;2.10;;;;;;;;;;6255786;23;20047;-86
2021/06/14 15:01:07;;;;;;;3.50;1.92;;;;;;;;;;6237442;22;20012;-86
2021/06/14 15:03:37;;;;;;;8.23;2.38;;;;;;;;;;6268591;22;20016;-88
2021/06/14 15:06:17;;;;;;;5.03;2.00;;;;;;;;;;6262274;22;20038;-86
2021/06/14 15:08:45;;;;;;;5.15;2.30;;;;;;;;;;6257816;23;20031;-87
2021/06/14 15:11:12;;;;;;;4.18;2.38;;;;;;;;;;6255833;23;20437;-86
2021/06/14 15:13:54;;;;;;;4.05;1.95;;;;;;;;;;6225618;23;20339;-86
2021/06/14 15:16:24;;;;;;;4.03;2.22;;;;;;;;;;6250955;23;20437;-87